Terminal Aerodrome Forecast
Issued by NWS Huntsville, AL

Home | Current Version | Previous Version | Text Only | Print | Product List | Glossary On
Versions: 1 2 3 4 5 6 7 8 9 10 11 12 13 14 15 16 17 18 19 20 21 22 23 24 25 26 27 28 29 30 31 32
000
FTUS44 KHUN 212330
TAFHSV
TAF
KHSV 212330Z 2200/2224 13009KT P6SM -SHRA SCT015 OVC070
      TEMPO 2200/2203 6SM -RA BR BKN015
     FM220300 11005KT 5SM -RADZ BR OVC015
     FM220800 09003KT 3SM -DZ BR BKN005 OVC015
     FM221600 11003KT 5SM -DZ BR SCT010 OVC020
     FM222100 12010KT P6SM OVC025=

USA.gov is the U.S. government's official web portal to all federal, state and local government web resources and services.